Tiempo atmosférico en la estación meteorológica de Almazul, Soria (1000 m.)



Fecha
DESCASC
Temp. máxima en grados centígrados (hora)
DESCASC
Temp. mínima en grados centígrados (hora)
DESCASC
Temp. media en grados centígrados
DESCASC
Racha de viento máxima en m/sg (hora)
DESCASC
Velocidad máxima media en intervalos de 10 minutos(hora)
DESCASC
Precipitaciones diarias en mm
DESCASC
Precipitaciones de 00:00 a 06:00 en mm
DESCASC
Precipitaciones de 06:00 a 12:00 en mm
DESCASC
Precipitaciones de 12:00 a 18:00 en mm
DESCASC
Precipitaciones de 18:00 a 24:00 en mm
DESCASC
13-10-2019 23.4 (16:40) 10.9 (08:40) 17.1 18.33 (01:10) 12.5 (01:10) 0.2 0.2 0 0 0
12-10-2019 25.5 (17:20) 15.7 (09:00) 20.6 17.78 (23:30) 11.11 (23:59) 0 0 0 0 0
10-10-2019 24.3 (17:20) 5.5 (00:00) 14.9 8.33 (20:30) 5.83 (20:30) 0 0 0 0 0
09-10-2019 20.5 (16:40) 9.6 (00:00) 15.1 12.78 (20:30) 10 (20:30) 0 0 0 0 0
08-10-2019 28.5 (17:10) 8.5 (00:00) 18.5 7.5 (16:10) 5.56 (20:20) 0 0 0 0 0
07-10-2019 23.9 (15:50) 7.9 (00:00) 15.9 13.33 (15:10) 9.44 (15:10) 0 0 0 0 0
06-10-2019 23.4 (16:50) 6.6 (00:00) 15 11.67 (18:20) 9.72 (19:20) 0 0 0 0 0
05-10-2019 27 (16:00) 6.9 (07:10) 17 6.67 (18:10) 5.56 (02:10) 0 0 0 0 0
04-10-2019 25.3 (16:40) 5.9 (00:00) 15.6 10.83 (17:30) 6.39 (21:10) 0 0 0 0 0
03-10-2019 23.6 (16:50) 4.8 (00:00) 14.2 11.67 (01:20) 9.72 (01:20) 0 0 0 0 0
02-10-2019 18.7 (16:50) 7.7 (00:00) 13.2 13.33 (23:10) 10.56 (23:10) 0 0 0 0 0
01-10-2019 22.4 (14:10) 7.6 (00:00) 15 13.33 (15:10) 9.44 (15:10) 0 0 0 0 0
30-09-2019 28.3 (17:00) 9.2 (00:00) 18.7 8.89 (14:00) 6.11 (18:10) 0 0 0 0 0
29-09-2019 26.6 (16:00) 7.5 (00:00) 17.1 11.67 (14:40) 7.22 (14:30) 0 0 0 0 0
28-09-2019 27.8 (17:00) 7.6 (00:00) 17.7 7.22 (13:50) 5.28 (13:50) 0 0 0 0 0
27-09-2019 25.4 (16:10) 8.9 (00:00) 17.1 9.72 (18:40) 6.39 (17:50) 0 0 0 0 0
26-09-2019 26.4 (17:20) 8.2 (00:00) 17.3 8.61 (14:20) 5.83 (17:00) 0 0 0 0 0
25-09-2019 20.1 (16:40) 10.4 (00:00) 15.3 10.28 (07:20) 7.22 (08:10) 0 0 0 0 0
24-09-2019 22.3 (16:10) 10.4 (00:00) 16.3 12.78 (15:30) 8.61 (12:20) 0 0 0 0 0
23-09-2019 21.3 (17:50) 8.5 (00:00) 14.9 8.89 (14:50) 5.56 (15:20) 0 0 0 0 0
22-09-2019 18.5 (17:50) 11 (00:00) 14.8 11.11 (08:10) 7.78 (06:50) 1 0.2 0 0.8 0
21-09-2019 20.5 (16:00) 13.2 (00:00) 16.8 12.78 (15:20) 8.89 (15:20) 3.2 3.2 0 0 0
20-09-2019 24.8 (15:40) 13.7 (00:00) 19.2 12.78 (20:50) 9.44 (20:50) 4.8 0 0 0.6 4.2
19-09-2019 24.4 (15:10) 12.5 (00:00) 18.4 8.06 (16:30) 4.44 (16:40) 0 0 0 0 0
18-09-2019 24.3 (17:50) 10.9 (00:00) 17.6 8.06 (01:20) 6.67 (01:20) 1.2 1.2 0 0 0
17-09-2019 27.9 (16:40) 14.2 (00:00) 21 18.61 (22:40) 15 (22:30) 0 0 0 0 0

Gráficas

Temp. máximas Temp. mínimas Temp. medias Precipitaciones Rachas de viento máximas Velocidades máximas media en intervalos de 10 minutos

Datos horarios

Fecha y hora oficial Temperatura (ºC) Velocidad del viento (km/h) Dirección del viento Racha (km/h) Dirección de racha Precipitación (mm) Presión (hPa) Tendencia (hPa) Humedad (%)
2019-10-16 23:00:00 11.3 15 Oeste 27 Oeste 0 -- -- 57
2019-10-16 22:00:00 12 17 Oeste 26 Oeste 0 -- -- 57
2019-10-16 21:00:00 12.2 14 Oeste 22 Oeste 0 -- -- 58
2019-10-16 20:00:00 13.4 10 Oeste 21 Oeste 0 -- -- 53
2019-10-16 19:00:00 15.8 18 Oeste 30 Sudoeste 0 -- -- 46
2019-10-16 18:00:00 17.5 18 Oeste 30 Oeste 0 -- -- 43
2019-10-16 17:00:00 17.6 18 Oeste 31 Noroeste 0 -- -- 41
2019-10-16 16:00:00 16.8 18 Noroeste 33 Oeste 0 -- -- 44
2019-10-16 15:00:00 15.1 19 Oeste 30 Oeste 0 -- -- 48
2019-10-16 14:00:00 14.2 18 Noroeste 40 Oeste 0 -- -- 56
2019-10-16 13:00:00 12.8 18 Noroeste 35 Noroeste 0 -- -- 60
2019-10-16 12:00:00 11.9 16 Noroeste 31 Noroeste 0 -- -- 66
2019-10-16 11:00:00 10.2 19 Noroeste 30 Noroeste 0 -- -- 69
2019-10-16 10:00:00 10.9 3 Sudoeste 8 Oeste 0 -- -- 64
2019-10-16 09:00:00 5.9 3 Sudoeste 13 Norte 0 -- -- 79
2019-10-16 08:00:00 5 9 Norte 15 Norte 0 -- -- 82
2019-10-16 07:00:00 5.3 7 Noroeste 12 Nordeste 0 -- -- 80
2019-10-16 06:00:00 5.5 9 Nordeste 13 Norte 0 -- -- 81
2019-10-16 05:00:00 6.3 6 Norte 9 Norte 0 -- -- 79
2019-10-16 04:00:00 7.5 2 Norte 10 Oeste 0 -- -- 73
2019-10-16 03:00:00 8 2 Sudoeste 8 Noroeste 0 -- -- 68
2019-10-16 02:00:00 8.6 5 Noroeste 11 Oeste 0 -- -- 66
2019-10-16 01:00:00 8.4 8 Oeste 15 Noroeste 0 -- -- 67
2019-10-16 00:00:00 8 10 Oeste 15 Oeste 0 -- -- 68
2019-10-15 23:00:00 7.4 6 Noroeste 11 Noroeste 0 -- -- 69
2019-10-15 22:00:00 7.6 4 Noroeste 8 Noroeste 0 -- -- 68
2019-10-15 21:00:00 7.8 0 Calma 15 Norte 0 -- -- 67
2019-10-15 20:00:00 9.3 13 Norte 26 Noroeste 0 -- -- 61
2019-10-15 19:00:00 11.1 18 Norte 35 Norte 0 -- -- 55
2019-10-15 18:00:00 12.1 23 Noroeste 35 Norte 0 -- -- 52
2019-10-15 17:00:00 12.7 20 Noroeste 33 Noroeste 0 -- -- 49
2019-10-15 16:00:00 12.2 21 Noroeste 32 Noroeste 0 -- -- 52
2019-10-15 15:00:00 11.1 24 Noroeste 40 Noroeste 0 -- -- 56
2019-10-15 14:00:00 10 19 Noroeste 33 Noroeste 0 -- -- 60
2019-10-15 13:00:00 8.2 20 Noroeste 37 Norte 0 -- -- 68
2019-10-15 12:00:00 7.4 26 Noroeste 41 Noroeste 0 -- -- 72
2019-10-15 11:00:00 6.3 25 Norte 41 Noroeste 0 -- -- 77
2019-10-15 10:00:00 5.7 28 Noroeste 48 Norte 0 -- -- 81
2019-10-15 09:00:00 5 29 Noroeste 54 Noroeste 0 -- -- 81
2019-10-15 08:00:00 4.9 30 Noroeste 45 Norte 0 -- -- 82
2019-10-15 07:00:00 5 31 Noroeste 48 Noroeste 0 -- -- 81
2019-10-15 06:00:00 5.4 32 Noroeste 46 Noroeste 0 -- -- 83
2019-10-15 05:00:00 5.2 26 Noroeste 37 Noroeste 0 -- -- 84
2019-10-15 04:00:00 5.9 18 Noroeste 40 Noroeste 0 -- -- 83
2019-10-15 03:00:00 6.1 21 Noroeste 44 Noroeste 0 -- -- 84
2019-10-15 02:00:00 6.4 23 Noroeste 37 Noroeste 0 -- -- 83
2019-10-15 01:00:00 6.6 19 Noroeste 40 Noroeste 0 -- -- 84
2019-10-15 00:00:00 6.7 18 Noroeste 32 Noroeste 0 -- -- 86
2019-10-14 23:00:00 6.8 14 Noroeste 28 Noroeste 0 -- -- 85
2019-10-14 22:00:00 6.5 13 Noroeste 56 Noroeste 0.8 -- -- 87
2019-10-14 21:00:00 7.1 33 Noroeste 57 Noroeste 0.2 -- -- 84
2019-10-14 20:00:00 7.7 47 Noroeste 64 Noroeste 0 -- -- 85
2019-10-14 19:00:00 15.1 34 Oeste 57 Oeste 0 -- -- 50
2019-10-14 18:00:00 17 38 Oeste 60 Oeste 0 -- -- 44
2019-10-14 17:00:00 17.8 33 Oeste 63 Oeste 0 -- -- 46
2019-10-14 16:00:00 17.3 44 Oeste 67 Oeste 0.2 -- -- 52
2019-10-14 15:00:00 16.6 35 Oeste 59 Oeste 0.2 -- -- 66
2019-10-14 14:00:00 16.6 31 Oeste 49 Oeste 0.4 -- -- 67
2019-10-14 13:00:00 17.2 35 Sudoeste 55 Sudoeste 0 -- -- 62
2019-10-14 12:00:00 16.5 44 Sudoeste 55 Sudoeste 0 -- -- 66
2019-10-14 11:00:00 16.7 28 Sudoeste 42 Sudoeste 0 -- -- 64
2019-10-14 10:00:00 16.5 23 Sudoeste 35 Sudoeste 0 -- -- 65
2019-10-14 09:00:00 13.8 11 Sudoeste 28 Sur 0 -- -- 78
2019-10-14 08:00:00 13.7 24 Sur 48 Sur 0.2 -- -- 78
2019-10-14 07:00:00 14.4 32 Sudoeste 39 Sudoeste 0.2 -- -- 73
2019-10-14 06:00:00 13.8 5 Norte 22 Sur 0 -- -- 64
2019-10-14 05:00:00 13.6 19 Sur 23 Sur 0 -- -- 58
2019-10-14 04:00:00 12.7 12 Sur 17 Sur 0 -- -- 55
2019-10-14 03:00:00 13.5 6 Sur 12 Sudoeste 0 -- -- 56
2019-10-14 02:00:00 12.8 11 Sur 18 Sur 0 -- -- 60
2019-10-14 01:00:00 11.4 5 Sur 9 Sur 0 -- -- 64
2019-10-14 00:00:00 14.7 3 Sur 13 Nordeste 0 -- -- 54
2019-10-13 23:00:00 13.6 8 Sudoeste 15 Sur 0 -- -- 54
2019-10-13 22:00:00 13.8 5 Sudoeste 17 Sur 0 -- -- 50
2019-10-13 21:00:00 16.5 3 Sur 11 Sudoeste 0 -- -- 43
2019-10-13 20:00:00 18.2 10 Sudoeste 28 Oeste 0 -- -- 39
2019-10-13 19:00:00 21.8 25 Oeste 43 Oeste 0 -- -- 32
2019-10-13 18:00:00 22.8 32 Oeste 48 Sudoeste 0 -- -- 34
2019-10-13 17:00:00 23 39 Oeste 57 Sudoeste 0 -- -- 35
2019-10-13 16:00:00 23 35 Oeste 53 Sudoeste 0 -- -- 41
2019-10-13 15:00:00 22.1 32 Sudoeste 52 Oeste 0 -- -- 47
2019-10-13 14:00:00 21 31 Sudoeste 53 Sudoeste 0 -- -- 52
2019-10-13 13:00:00 20 28 Sudoeste 44 Sudoeste 0 -- -- 60
2019-10-13 12:00:00 18.4 29 Sudoeste 51 Sur 0 -- -- 67
2019-10-13 11:00:00 17.2 17 Oeste 30 Sudoeste 0 -- -- 72
2019-10-13 10:00:00 14.2 13 Sur 18 Sur 0 -- -- 76
2019-10-13 09:00:00 11.9 6 Sur 10 Sur 0 -- -- 76
2019-10-13 08:00:00 11.5 4 Sur 15 Sur 0 -- -- 78
2019-10-13 07:00:00 11.2 9 Sur 17 Sur 0 -- -- 80
2019-10-13 06:00:00 11.5 12 Sur 17 Sur 0 -- -- 80
2019-10-13 05:00:00 12.7 14 Sur 24 Sur 0 -- -- 76
2019-10-13 04:00:00 14.7 15 Sur 24 Sudoeste 0 -- -- 67
2019-10-13 03:00:00 14.5 17 Sur 25 Sur 0 -- -- 72
2019-10-13 02:00:00 14.4 6 Sudoeste 66 Oeste 0.2 -- -- 74
2019-10-13 01:00:00 17.4 40 Oeste 61 Oeste 0 -- -- 52
2019-10-13 00:00:00 17.5 40 Oeste 64 Oeste 0 -- -- 52
2019-10-12 23:00:00 18.8 8 Sur 14 Sudoeste 0 -- -- 51
2019-10-12 22:00:00 19 15 Sudoeste 22 Sudoeste 0 -- -- 53
2019-10-12 21:00:00 19.4 12 Sudoeste 19 Sudoeste 0 -- -- 46
2019-10-12 20:00:00 21 18 Sudoeste 34 Oeste 0 -- -- 41
2019-10-12 19:00:00 22.9 25 Oeste 34 Oeste 0 -- -- 36
2019-10-12 18:00:00 23.8 26 Oeste 46 Sudoeste 0 -- -- 34
2019-10-12 17:00:00 24.5 30 Sudoeste 48 Sudoeste 0 -- -- 34
2019-10-12 16:00:00 24 24 Sudoeste 39 Sudoeste 0 -- -- 43
2019-10-12 15:00:00 23.4 22 Sur 31 Sur 0 -- -- 45
2019-10-12 14:00:00 21.8 19 Sudoeste 30 Sudoeste 0 -- -- 49
2019-10-12 13:00:00 20.8 15 Sudoeste 25 Sur 0 -- -- 55
2019-10-12 12:00:00 19.5 12 Sur 18 Sur 0 -- -- 60
2019-10-12 11:00:00 17.7 8 Sudoeste 14 Sudoeste 0 -- -- 69
2019-10-12 10:00:00 16.8 10 Sudeste 15 Sudeste 0 -- -- 72
2019-10-12 09:00:00 15.7 7 Norte 15 Sur 0 -- -- 74
2019-10-12 08:00:00 16 14 Sur 19 Sur 0 -- -- 70
2019-10-12 07:00:00 17 10 Sudeste 21 Sur 0 -- -- 65
2019-10-12 06:00:00 16.9 20 Sur 29 Sur 0 -- -- 64
2019-10-12 05:00:00 16.3 18 Sur 25 Sur 0 -- -- 64
2019-10-12 04:00:00 17.1 12 Sur 18 Sur 0 -- -- 58
2019-10-12 03:00:00 18.2 10 Sur 17 Sudeste 0 -- -- 55
2019-10-12 02:00:00 18.6 12 Sudeste 20 Sur 0 -- -- 53
2019-10-12 01:00:00 18.3 9 Sur 15 Sur 0 -- -- 54
2019-10-12 00:00:00 17.9 10 Sur 17 Sur 0 -- -- 58
2019-10-11 23:00:00 18.6 13 Sur 16 Sur 0 -- -- 57
2019-10-11 22:00:00 18.9 11 Sur 21 Sur 0 -- -- 55
2019-10-11 21:00:00 20 7 Sudeste 14 Oeste 0 -- -- 51
2019-10-11 20:00:00 21.9 10 Oeste 23 Oeste 0 -- -- 48
2019-10-11 19:00:00 24.6 17 Oeste 32 Sudoeste 0 -- -- 43
2019-10-11 18:00:00 26 27 Sudoeste 35 Oeste 0 -- -- 39
2019-10-11 17:00:00 26 17 Sudoeste 32 Sudoeste 0 -- -- 40
2019-10-11 16:00:00 26.4 21 Sudoeste 38 Sudoeste 0 -- -- 43
2019-10-11 15:00:00 26 18 Sudoeste 27 Sudoeste 0 -- -- 45
2019-10-11 14:00:00 23.9 12 Sudoeste 21 Sudoeste 0 -- -- 50
2019-10-11 13:00:00 22 14 Sudoeste 21 Sur 0 -- -- 55
2019-10-11 12:00:00 20.2 12 Sudoeste 20 Sudoeste 0 -- -- 62
2019-10-11 11:00:00 17 12 Sur 14 Sur 0 -- -- 68
2019-10-11 10:00:00 16.2 2 Sudeste 5 Este 0 -- -- 65
2019-10-11 09:00:00 11.6 2 Sudeste 4 Sudeste 0 -- -- 76
2019-10-11 08:00:00 9.7 0 Calma 3 Sudeste 0 -- -- 81
2019-10-11 07:00:00 10.4 2 Sudeste 4 Este 0 -- -- 77
2019-10-11 06:00:00 10.1 2 Este 5 Sudeste 0 -- -- 76
2019-10-11 05:00:00 10.3 0 Calma 3 Sudeste 0 -- -- 77
2019-10-11 04:00:00 11.1 2 Sudeste 3 Sudeste 0 -- -- 75
2019-10-11 03:00:00 11.7 0 Calma 4 Norte 0 -- -- 71
2019-10-11 02:00:00 12 0 Calma 4 Sudeste 0 -- -- 71
2019-10-11 01:00:00 12.5 0 Calma 5 Sur 0 -- -- 68
2019-10-11 00:00:00 13.4 8 Sudeste 18 Sudeste 0 -- -- 64
2019-10-10 23:00:00 13.8 13 Sudeste 19 Sudeste 0 -- -- 63
2019-10-10 22:00:00 14.1 17 Sudeste 23 Sudeste 0 -- -- 61
2019-10-10 21:00:00 14.4 15 Sudeste 30 Sudeste 0 -- -- 60
2019-10-10 20:00:00 16.4 20 Sudeste 27 Sudeste 0 -- -- 56
2019-10-10 19:00:00 21.6 15 Sur 18 Sur 0 -- -- 51
2019-10-10 18:00:00 24 3 Sudoeste 15 Sudoeste 0 -- -- 44
2019-10-10 17:00:00 22.8 5 Sur 17 Sur 0 -- -- 48
2019-10-10 16:00:00 21.4 8 Sudoeste 26 Sudoeste 0 -- -- 53
2019-10-10 15:00:00 20.2 11 Sudoeste 21 Sur 0 -- -- 51
2019-10-10 14:00:00 18.2 8 Sudoeste 15 Sur 0 -- -- 57
2019-10-10 13:00:00 15.8 7 Sur 17 Sur 0 -- -- 62
2019-10-10 12:00:00 15.2 12 Sur 15 Sur 0 -- -- 58
2019-10-10 11:00:00 14.5 5 Sur 10 Sur 0 -- -- 58
2019-10-10 10:00:00 13 3 Sur 10 Norte 0 -- -- 62
2019-10-10 09:00:00 6.7 5 Norte 8 Norte 0 -- -- 81
2019-10-10 08:00:00 6.1 2 Sudeste 5 Nordeste 0 -- -- 85
2019-10-10 07:00:00 5.9 3 Nordeste 10 Norte 0 -- -- 84
2019-10-10 06:00:00 6.5 3 Nordeste 12 Nordeste 0 -- -- 82
2019-10-10 05:00:00 6.4 9 Nordeste 12 Nordeste 0 -- -- 82
2019-10-10 04:00:00 6.6 3 Este 10 Sudeste 0 -- -- 82
2019-10-10 03:00:00 7.3 5 Nordeste 14 Este 0 -- -- 78
2019-10-10 02:00:00 8.5 10 Nordeste 14 Este 0 -- -- 74
2019-10-10 01:00:00 9 6 Nordeste 11 Nordeste 0 -- -- 75
2019-10-10 00:00:00 9.8 5 Nordeste 33 Nordeste 0 -- -- 76
2019-10-09 23:00:00 10.6 27 Nordeste 38 Nordeste 0 -- -- 74
2019-10-09 22:00:00 11.3 31 Nordeste 42 Nordeste 0 -- -- 70
2019-10-09 21:00:00 12.3 33 Nordeste 46 Nordeste 0 -- -- 66
2019-10-09 20:00:00 13.8 32 Nordeste 41 Nordeste 0 -- -- 64
2019-10-09 19:00:00 16.1 33 Nordeste 42 Nordeste 0 -- -- 59
2019-10-09 18:00:00 18.7 29 Nordeste 37 Nordeste 0 -- -- 53
2019-10-09 17:00:00 19.8 27 Nordeste 32 Nordeste 0 -- -- 52
2019-10-09 16:00:00 20.3 19 Nordeste 34 Nordeste 0 -- -- 54
2019-10-09 15:00:00 19.8 22 Nordeste 30 Nordeste 0 -- -- 56
2019-10-09 14:00:00 20.2 10 Nordeste 20 Nordeste 0 -- -- 54
2019-10-09 13:00:00 18.7 8 Nordeste 20 Nordeste 0 -- -- 62
2019-10-09 12:00:00 17.4 10 Nordeste 24 Nordeste 0 -- -- 66
2019-10-09 11:00:00 16.8 13 Nordeste 19 Nordeste 0 -- -- 69
2019-10-09 10:00:00 14.9 8 Norte 12 Norte 0 -- -- 74
2019-10-09 09:00:00 10.8 5 Norte 9 Norte 0 -- -- 77
2019-10-09 08:00:00 9.9 9 Nordeste 19 Nordeste 0 -- -- 78
2019-10-09 07:00:00 11.2 2 Nordeste 8 Norte 0 -- -- 70
2019-10-09 06:00:00 12 2 Sudeste 10 Norte 0 -- -- 68
2019-10-09 05:00:00 11.5 3 Norte 8 Este 0 -- -- 69
2019-10-09 04:00:00 12.8 3 Nordeste 12 Norte 0 -- -- 63
2019-10-09 03:00:00 13.6 6 Norte 14 Norte 0 -- -- 63
2019-10-09 02:00:00 14.6 5 Sudeste 12 Sudeste 0 -- -- 59
2019-10-09 01:00:00 14.3 5 Nordeste 12 Nordeste 0 -- -- 58
2019-10-09 00:00:00 14.9 8 Nordeste 16 Nordeste 0 -- -- 53
2019-10-08 23:00:00 16.3 9 Norte 13 Norte 0 -- -- 49
2019-10-08 22:00:00 17.2 13 Nordeste 18 Nordeste 0 -- -- 46
2019-10-08 21:00:00 18.4 17 Nordeste 26 Nordeste 0 -- -- 44
2019-10-08 20:00:00 23.7 9 Oeste 19 Oeste 0 -- -- 37
2019-10-08 19:00:00 27.1 12 Oeste 20 Oeste 0 -- -- 32
2019-10-08 18:00:00 28.2 13 Oeste 25 Oeste 0 -- -- 29
2019-10-08 17:00:00 28.2 13 Oeste 27 Oeste 0 -- -- 29
2019-10-08 16:00:00 27.4 13 Oeste 26 Oeste 0 -- -- 31
2019-10-08 15:00:00 26.3 13 Oeste 21 Noroeste 0 -- -- 32
2019-10-08 14:00:00 25.5 10 Oeste 22 Oeste 0 -- -- 35
2019-10-08 13:00:00 23.7 9 Oeste 21 Sudoeste 0 -- -- 38
2019-10-08 12:00:00 22.5 7 Sur 13 Sur 0 -- -- 42
2019-10-08 11:00:00 21.6 2 Sudoeste 6 Sudoeste 0 -- -- 42
2019-10-08 10:00:00 16 3 Este 9 Nordeste 0 -- -- 54
2019-10-08 09:00:00 11.7 4 Nordeste 10 Nordeste 0 -- -- 63
2019-10-08 08:00:00 9.3 6 Nordeste 9 Nordeste 0 -- -- 67
2019-10-08 07:00:00 8.7 4 Nordeste 6 Nordeste 0 -- -- 69
2019-10-08 06:00:00 10 0 Calma 9 Nordeste 0 -- -- 65
2019-10-08 05:00:00 12 6 Nordeste 13 Nordeste 0 -- -- 58
2019-10-08 04:00:00 12.5 15 Nordeste 19 Nordeste 0 -- -- 57
2019-10-08 03:00:00 12.3 12 Nordeste 16 Nordeste 0 -- -- 56
2019-10-08 02:00:00 13.9 5 Nordeste 18 Norte 0 -- -- 52
2019-10-08 01:00:00 14.3 12 Norte 15 Nordeste 0 -- -- 45
2019-10-08 00:00:00 14.2 14 Nordeste 23 Norte 0 -- -- 43
2019-10-07 23:00:00 15.7 5 Noroeste 36 Nordeste 0 -- -- 41
2019-10-07 22:00:00 17.5 33 Nordeste 36 Nordeste 0 -- -- 39
2019-10-07 21:00:00 17.1 31 Nordeste 35 Nordeste 0 -- -- 41
2019-10-07 20:00:00 19.5 27 Nordeste 37 Nordeste 0 -- -- 38
2019-10-07 19:00:00 22.4 18 Nordeste 36 Nordeste 0 -- -- 43
2019-10-07 18:00:00 23.2 29 Nordeste 37 Nordeste 0 -- -- 42
2019-10-07 17:00:00 23.9 22 Nordeste 47 Nordeste 0 -- -- 42
2019-10-07 16:00:00 23.3 30 Nordeste 48 Norte 0 -- -- 43
2019-10-07 15:00:00 22.8 32 Nordeste 43 Nordeste 0 -- -- 40
2019-10-07 14:00:00 22.3 23 Nordeste 36 Norte 0 -- -- 34
2019-10-07 13:00:00 20.1 17 Norte 35 Norte 0 -- -- 27
2019-10-07 12:00:00 17.9 23 Norte 32 Norte 0 -- -- 28
2019-10-07 11:00:00 16.1 12 Norte 18 Noroeste 0 -- -- 46
2019-10-07 10:00:00 13.1 10 Norte 18 Norte 0 -- -- 71
2019-10-07 09:00:00 10.5 8 Norte 14 Norte 0 -- -- 85
2019-10-07 08:00:00 8.5 5 Norte 14 Norte 0 -- -- 78
2019-10-07 07:00:00 8.5 9 Nordeste 21 Nordeste 0 -- -- 76
2019-10-07 06:00:00 9.4 17 Nordeste 21 Nordeste 0 -- -- 80
2019-10-07 05:00:00 9.7 3 Nordeste 18 Noroeste 0 -- -- 84
2019-10-07 04:00:00 10.4 15 Norte 29 Norte 0 -- -- 81
2019-10-07 03:00:00 10.7 15 Nordeste 22 Nordeste 0 -- -- 85
2019-10-07 02:00:00 11.1 18 Nordeste 27 Nordeste 0 -- -- 85
2019-10-07 01:00:00 11.3 20 Nordeste 27 Nordeste 0 -- -- 85
2019-10-07 00:00:00 11.5 19 Nordeste 36 Nordeste 0 -- -- 84
2019-10-06 23:00:00 12.5 23 Nordeste 33 Nordeste 0 -- -- 81
2019-10-06 22:00:00 12.8 25 Nordeste 34 Nordeste 0 -- -- 79
2019-10-06 21:00:00 13.6 24 Nordeste 38 Nordeste 0 -- -- 76
2019-10-06 20:00:00 15.2 27 Nordeste 42 Nordeste 0 -- -- 68
2019-10-06 19:00:00 18.4 31 Nordeste 42 Este 0 -- -- 59
2019-10-06 18:00:00 22.7 16 Noroeste 26 Noroeste 0 -- -- 35
2019-10-06 17:00:00 22.7 17 Noroeste 25 Noroeste 0 -- -- 38
2019-10-06 16:00:00 23.2 5 Noroeste 23 Noroeste 0 -- -- 42
2019-10-06 15:00:00 20.5 11 Norte 19 Norte 0 -- -- 47
2019-10-06 14:00:00 19.3 9 Nordeste 21 Norte 0 -- -- 52
2019-10-06 13:00:00 18 7 Norte 19 Norte 0 -- -- 54
2019-10-06 12:00:00 17.8 4 Nordeste 12 Norte 0 -- -- 57
2019-10-06 11:00:00 15.7 8 Nordeste 17 Norte 0 -- -- 66
2019-10-06 10:00:00 13.3 9 Norte 14 Nordeste 0 -- -- 72
2019-10-06 09:00:00 9.7 10 Norte 15 Nordeste 0 -- -- 83
2019-10-06 08:00:00 7.2 10 Nordeste 15 Nordeste 0 -- -- 87
2019-10-06 07:00:00 7.2 6 Norte 11 Nordeste 0 -- -- 88
2019-10-06 06:00:00 9.4 8 Nordeste 12 Norte 0 -- -- 84
2019-10-06 05:00:00 8.9 7 Nordeste 15 Nordeste 0 -- -- 82
2019-10-06 04:00:00 9.3 10 Norte 13 Norte 0 -- -- 82
2019-10-06 03:00:00 10.6 5 Nordeste 13 Nordeste 0 -- -- 78
2019-10-06 02:00:00 11.9 9 Nordeste 13 Nordeste 0 -- -- 75
2019-10-06 01:00:00 12 6 Nordeste 9 Norte 0 -- -- 72
2019-10-06 00:00:00 12.9 5 Nordeste 11 Norte 0 -- -- 70
2019-10-05 23:00:00 14.5 8 Nordeste 13 Norte 0 -- -- 64
2019-10-05 22:00:00 15.1 12 Norte 15 Norte 0 -- -- 60
2019-10-05 21:00:00 16.7 12 Nordeste 22 Nordeste 0 -- -- 57
2019-10-05 20:00:00 20.9 14 Norte 23 Noroeste 0 -- -- 37
2019-10-05 19:00:00 24.6 12 Noroeste 24 Noroeste 0 -- -- 29
2019-10-05 18:00:00 25.8 12 Oeste 23 Noroeste 0 -- -- 32
2019-10-05 17:00:00 26.4 10 Sudoeste 23 Sudoeste 0 -- -- 32
2019-10-05 16:00:00 27 5 Oeste 23 Noroeste 0 -- -- 33
2019-10-05 15:00:00 24.6 8 Oeste 18 Oeste 0 -- -- 38
2019-10-05 14:00:00 22.2 9 Oeste 18 Oeste 0 -- -- 44
2019-10-05 13:00:00 20.7 3 Norte 8 Sudoeste 0 -- -- 56
2019-10-05 12:00:00 16.4 4 Norte 8 Norte 0 -- -- 88
2019-10-05 11:00:00 13.1 0 Calma 10 Norte 0 -- -- 93
2019-10-05 10:00:00 9.2 8 Norte 11 Norte 0 -- -- 98
2019-10-05 09:00:00 7.9 6 Norte 10 Norte 0 -- -- 98
2019-10-05 08:00:00 7.4 9 Nordeste 13 Norte 0 -- -- 97
2019-10-05 07:00:00 7.4 9 Nordeste 15 Nordeste 0 -- -- 96
2019-10-05 06:00:00 8 0 Calma 4 Norte 0 -- -- 95
2019-10-05 05:00:00 9.5 0 Calma 11 Nordeste 0 -- -- 96
2019-10-05 04:00:00 9.5 7 Norte 16 Norte 0 -- -- 94
2019-10-05 03:00:00 10.6 12 Nordeste 24 Nordeste 0 -- -- 92
2019-10-05 02:00:00 12.3 18 Nordeste 21 Nordeste 0 -- -- 89
2019-10-05 01:00:00 11.7 3 Nordeste 19 Nordeste 0 -- -- 89
2019-10-05 00:00:00 12.4 13 Nordeste 18 Nordeste 0 -- -- 87
2019-10-04 23:00:00 13.2 17 Nordeste 25 Nordeste 0 -- -- 83
2019-10-04 22:00:00 14.9 22 Nordeste 30 Nordeste 0 -- -- 76
2019-10-04 21:00:00 17.1 13 Nordeste 23 Este 0 -- -- 62
2019-10-04 20:00:00 20.3 13 Norte 24 Noroeste 0 -- -- 48
2019-10-04 19:00:00 23.3 16 Noroeste 31 Noroeste 0 -- -- 42
2019-10-04 18:00:00 24.4 16 Noroeste 39 Oeste 0 -- -- 38
2019-10-04 17:00:00 24.8 20 Noroeste 33 Noroeste 0 -- -- 35
2019-10-04 16:00:00 25.2 17 Oeste 31 Noroeste 0 -- -- 32
2019-10-04 15:00:00 23.5 9 Norte 23 Noroeste 0 -- -- 38
2019-10-04 14:00:00 22.3 13 Noroeste 24 Noroeste 0 -- -- 36
2019-10-04 13:00:00 21.3 8 Noroeste 21 Noroeste 0 -- -- 44
2019-10-04 12:00:00 20.8 2 Nordeste 9 Sudoeste 0 -- -- 45
2019-10-04 11:00:00 18.6 2 Sudeste 11 Nordeste 0 -- -- 50
2019-10-04 10:00:00 12.7 6 Nordeste 9 Nordeste 0 -- -- 68
2019-10-04 09:00:00 8.3 5 Nordeste 11 Norte 0 -- -- 79
2019-10-04 08:00:00 6.2 8 Nordeste 9 Nordeste 0 -- -- 85
2019-10-04 07:00:00 7.1 3 Nordeste 8 Nordeste 0 -- -- 82
2019-10-04 06:00:00 7.9 8 Norte 16 Nordeste 0 -- -- 81
2019-10-04 05:00:00 8.4 0 Calma 5 Noroeste 0 -- -- 78
2019-10-04 04:00:00 9.9 3 Noroeste 10 Nordeste 0 -- -- 75
2019-10-04 03:00:00 9.9 10 Nordeste 14 Nordeste 0 -- -- 75
2019-10-04 02:00:00 10.9 3 Nordeste 18 Nordeste 0 -- -- 70
2019-10-04 01:00:00 11.4 15 Nordeste 17 Nordeste 0 -- -- 68
2019-10-04 00:00:00 12 12 Nordeste 17 Nordeste 0 -- -- 65
2019-10-03 23:00:00 12.5 9 Norte 14 Nordeste 0 -- -- 63
2019-10-03 22:00:00 14.6 14 Nordeste 18 Norte 0 -- -- 56
2019-10-03 21:00:00 15.9 12 Norte 17 Nordeste 0 -- -- 50
2019-10-03 20:00:00 18.3 16 Nordeste 18 Nordeste 0 -- -- 42
2019-10-03 19:00:00 21.5 14 Nordeste 30 Norte 0 -- -- 36
2019-10-03 18:00:00 22.9 23 Noroeste 38 Noroeste 0 -- -- 36
2019-10-03 17:00:00 23.5 21 Noroeste 35 Noroeste 0 -- -- 34
2019-10-03 16:00:00 23.2 19 Noroeste 30 Noroeste 0 -- -- 34
2019-10-03 15:00:00 22 16 Noroeste 28 Noroeste 0 -- -- 34
2019-10-03 14:00:00 20.6 17 Noroeste 27 Noroeste 0 -- -- 38
2019-10-03 13:00:00 18.5 16 Norte 27 Noroeste 0 -- -- 46
2019-10-03 12:00:00 16.4 19 Noroeste 28 Norte 0 -- -- 55
2019-10-03 11:00:00 13.4 11 Norte 18 Norte 0 -- -- 66
2019-10-03 10:00:00 9.6 5 Nordeste 10 Nordeste 0 -- -- 76
2019-10-03 09:00:00 5.5 5 Nordeste 12 Norte 0 -- -- 88
2019-10-03 08:00:00 5.8 9 Norte 16 Norte 0 -- -- 90
2019-10-03 07:00:00 5.6 5 Norte 10 Norte 0 -- -- 91
2019-10-03 06:00:00 6.5 6 Norte 13 Norte 0 -- -- 90
2019-10-03 05:00:00 7.4 9 Norte 20 Norte 0 -- -- 89
2019-10-03 04:00:00 9.1 19 Norte 30 Norte 0 -- -- 84
2019-10-03 03:00:00 9 13 Nordeste 33 Nordeste 0 -- -- 81
2019-10-03 02:00:00 9.8 30 Nordeste 42 Nordeste 0 -- -- 78
2019-10-03 01:00:00 9.7 32 Nordeste 41 Nordeste 0 -- -- 81
2019-10-03 00:00:00 10.3 33 Nordeste 48 Nordeste 0 -- -- 78
2019-10-02 23:00:00 11.4 35 Nordeste 44 Nordeste 0 -- -- 70
2019-10-02 22:00:00 11.7 23 Nordeste 31 Nordeste 0 -- -- 71
2019-10-02 21:00:00 12.9 18 Nordeste 38 Nordeste 0 -- -- 63
2019-10-02 20:00:00 14.2 24 Nordeste 42 Nordeste 0 -- -- 57
2019-10-02 19:00:00 16.7 31 Nordeste 43 Nordeste 0 -- -- 49
2019-10-02 18:00:00 17.6 30 Nordeste 41 Nordeste 0 -- -- 47
2019-10-02 17:00:00 17.7 22 Norte 36 Nordeste 0 -- -- 46
2019-10-02 16:00:00 18.4 23 Nordeste 33 Nordeste 0 -- -- 44
2019-10-02 15:00:00 17.1 20 Nordeste 41 Norte 0 -- -- 48
2019-10-02 14:00:00 16.5 22 Norte 40 Norte 0 -- -- 51
2019-10-02 13:00:00 15.5 26 Norte 40 Norte 0 -- -- 55
2019-10-02 12:00:00 14.4 22 Norte 36 Norte 0 -- -- 61
2019-10-02 11:00:00 13 13 Noroeste 23 Noroeste 0 -- -- 71
2019-10-02 10:00:00 12.6 5 Sur 12 Oeste 0 -- -- 71
2019-10-02 09:00:00 9.4 8 Norte 15 Noroeste 0 -- -- 84
2019-10-02 08:00:00 8.4 9 Noroeste 18 Noroeste 0 -- -- 87
2019-10-02 07:00:00 8.8 3 Norte 15 Norte 0 -- -- 84
2019-10-02 06:00:00 9.6 6 Norte 10 Noroeste 0 -- -- 81
2019-10-02 05:00:00 10.4 8 Norte 20 Noroeste 0 -- -- 76
2019-10-02 04:00:00 10.6 6 Noroeste 12 Noroeste 0 -- -- 76
2019-10-02 03:00:00 10.1 2 Noroeste 18 Nordeste 0 -- -- 83
2019-10-02 02:00:00 11.9 14 Nordeste 21 Nordeste 0 -- -- 73
2019-10-02 01:00:00 12.8 14 Noroeste 22 Noroeste 0 -- -- 68
2019-10-02 00:00:00 14.1 7 Norte 18 Noroeste 0 -- -- 64
2019-10-01 23:00:00 15.1 15 Noroeste 24 Noroeste 0 -- -- 60
2019-10-01 22:00:00 17.1 18 Noroeste 26 Noroeste 0 -- -- 53
2019-10-01 21:00:00 17.1 12 Noroeste 30 Noroeste 0 -- -- 52
2019-10-01 20:00:00 19 23 Noroeste 37 Noroeste 0 -- -- 47
2019-10-01 19:00:00 20.7 28 Noroeste 41 Noroeste 0 -- -- 43
2019-10-01 18:00:00 21.7 29 Noroeste 43 Norte 0 -- -- 39
2019-10-01 17:00:00 22 26 Noroeste 41 Noroeste 0 -- -- 41
2019-10-01 16:00:00 22.2 26 Norte 48 Norte 0 -- -- 42
2019-10-01 15:00:00 21.6 29 Noroeste 44 Norte 0 -- -- 43
2019-10-01 14:00:00 21.3 24 Norte 42 Norte 0 -- -- 50
2019-10-01 13:00:00 21.1 23 Noroeste 36 Noroeste 0 -- -- 48
2019-10-01 12:00:00 19.4 19 Norte 28 Norte 0 -- -- 49
2019-10-01 11:00:00 17.9 8 Norte 14 Norte 0 -- -- 44
2019-10-01 10:00:00 14.5 4 Nordeste 12 Nordeste 0 -- -- 58
2019-10-01 09:00:00 11.4 7 Nordeste 10 Nordeste 0 -- -- 62
2019-10-01 08:00:00 8.8 5 Nordeste 11 Norte 0 -- -- 68
2019-10-01 07:00:00 8.7 9 Norte 12 Norte 0 -- -- 69
2019-10-01 06:00:00 8.7 3 Nordeste 13 Nordeste 0 -- -- 69
2019-10-01 05:00:00 10.7 4 Nordeste 11 Nordeste 0 -- -- 62
2019-10-01 04:00:00 12.2 8 Nordeste 10 Nordeste 0 -- -- 53
2019-10-01 03:00:00 11.2 8 Nordeste 12 Nordeste 0 -- -- 58
2019-10-01 02:00:00 13 5 Norte 7 Norte 0 -- -- 49
2019-10-01 01:00:00 14.1 0 Calma 5 Nordeste 0 -- -- 46
2019-10-01 00:00:00 17.8 4 Sudeste 8 Sudoeste 0 -- -- 36
2019-09-30 23:00:00 18.7 6 Sur 15 Sudeste 0 -- -- 32
2019-09-30 22:00:00 19.5 0 Calma 10 Oeste 0 -- -- 28
2019-09-30 21:00:00 20.6 10 Noroeste 21 Oeste 0 -- -- 28
2019-09-30 20:00:00 22.7 12 Oeste 24 Oeste 0 -- -- 25
2019-09-30 19:00:00 26.2 18 Oeste 29 Oeste 0 -- -- 21
2019-09-30 18:00:00 27.3 20 Oeste 32 Oeste 0 -- -- 20
2019-09-30 17:00:00 28.3 15 Oeste 29 Oeste 0 -- -- 23
2019-09-30 16:00:00 27.1 13 Sudoeste 30 Oeste 0 -- -- 31
2019-09-30 15:00:00 25.7 15 Oeste 29 Sudoeste 0 -- -- 27
2019-09-30 14:00:00 24.5 19 Sudoeste 32 Sudoeste 0 -- -- 36
2019-09-30 13:00:00 23.3 7 Oeste 15 Norte 0 -- -- 48
2019-09-30 12:00:00 20.9 8 Norte 14 Noroeste 0 -- -- 57
2019-09-30 11:00:00 21 0 Calma 4 Sudoeste 0 -- -- 48
2019-09-30 10:00:00 18.4 0 Calma 4 Nordeste 0 -- -- 48
2019-09-30 09:00:00 13.9 0 Calma 5 Nordeste 0 -- -- 54
2019-09-30 08:00:00 9.8 0 Calma 6 Norte 0 -- -- 60
2019-09-30 07:00:00 10.3 2 Este 5 Sur 0 -- -- 58
2019-09-30 06:00:00 10.3 2 Nordeste 9 Sudeste 0 -- -- 58
2019-09-30 05:00:00 12 3 Este 9 Norte 0 -- -- 51
2019-09-30 04:00:00 14.2 6 Nordeste 13 Norte 0 -- -- 44
2019-09-30 03:00:00 14.6 7 Nordeste 13 Nordeste 0 -- -- 43
2019-09-30 02:00:00 14.7 10 Nordeste 16 Nordeste 0 -- -- 44
2019-09-30 01:00:00 16.5 3 Norte 12 Norte 0 -- -- 39
2019-09-30 00:00:00 15.1 3 Norte 6 Nordeste 0 -- -- 43
2019-09-29 23:00:00 15.4 2 Sur 5 Este 0 -- -- 44
2019-09-29 22:00:00 17.4 3 Nordeste 12 Nordeste 0 -- -- 38
2019-09-29 21:00:00 18.8 8 Norte 16 Norte 0 -- -- 36
2019-09-29 20:00:00 20.7 12 Norte 27 Noroeste 0 -- -- 33
2019-09-29 19:00:00 24.9 20 Norte 29 Norte 0 -- -- 26
2019-09-29 18:00:00 26 19 Noroeste 33 Norte 0 -- -- 26
2019-09-29 17:00:00 26.3 22 Noroeste 36 Noroeste 0 -- -- 25
2019-09-29 16:00:00 26.6 18 Noroeste 38 Oeste 0 -- -- 25
2019-09-29 15:00:00 25.5 23 Noroeste 42 Oeste 0 -- -- 26
2019-09-29 14:00:00 24.6 24 Noroeste 38 Noroeste 0 -- -- 26
2019-09-29 13:00:00 23.1 21 Noroeste 33 Noroeste 0 -- -- 32
2019-09-29 12:00:00 21.5 11 Noroeste 16 Noroeste 0 -- -- 38
2019-09-29 11:00:00 19.5 3 Nordeste 8 Nordeste 0 -- -- 43
2019-09-29 10:00:00 14.7 6 Nordeste 10 Nordeste 0 -- -- 62
2019-09-29 09:00:00 10.4 8 Nordeste 9 Nordeste 0 -- -- 72
2019-09-29 08:00:00 9.2 6 Nordeste 12 Nordeste 0 -- -- 73
2019-09-29 07:00:00 8.3 9 Nordeste 11 Nordeste 0 -- -- 79
2019-09-29 06:00:00 9.6 4 Nordeste 12 Nordeste 0 -- -- 71
2019-09-29 05:00:00 10.7 2 Sur 6 Nordeste 0 -- -- 62
2019-09-29 04:00:00 11.6 3 Sudoeste 13 Nordeste 0 -- -- 58
2019-09-29 03:00:00 12.5 4 Nordeste 5 Norte 0 -- -- 55
2019-09-29 02:00:00 13.4 2 Norte 6 Nordeste 0 -- -- 52
2019-09-29 01:00:00 15.3 3 Este 7 Nordeste 0 -- -- 45
2019-09-29 00:00:00 16.7 4 Sudeste 8 Sudeste 0 -- -- 40
2019-09-28 23:00:00 18.2 2 Sudeste 7 Sudeste 0 -- -- 37
2019-09-28 22:00:00 18.6 3 Norte 10 Noroeste 0 -- -- 38
2019-09-28 21:00:00 20.7 8 Noroeste 15 Noroeste 0 -- -- 35
2019-09-28 20:00:00 22.6 7 Oeste 21 Sudoeste 0 -- -- 32
2019-09-28 19:00:00 25.9 12 Oeste 24 Oeste 0 -- -- 26
2019-09-28 18:00:00 26.4 15 Noroeste 24 Sudoeste 0 -- -- 23
2019-09-28 17:00:00 27.8 6 Sur 26 Noroeste 0 -- -- 32
2019-09-28 16:00:00 26 11 Sudoeste 22 Oeste 0 -- -- 30
2019-09-28 15:00:00 23.9 6 Noroeste 24 Sudoeste 0 -- -- 39
2019-09-28 14:00:00 23.1 14 Sudoeste 26 Sudoeste 0 -- -- 37
2019-09-28 13:00:00 21.7 9 Sudeste 18 Sudoeste 0 -- -- 46
2019-09-28 12:00:00 22.3 2 Sudeste 8 Norte 0 -- -- 47
2019-09-28 11:00:00 18.9 2 Nordeste 5 Oeste 0 -- -- 51
2019-09-28 10:00:00 15.3 2 Norte 5 Nordeste 0 -- -- 56
2019-09-28 09:00:00 11 2 Nordeste 6 Nordeste 0 -- -- 68
2019-09-28 08:00:00 8.6 4 Norte 10 Nordeste 0 -- -- 72
2019-09-28 07:00:00 8.8 0 Calma 9 Norte 0 -- -- 71
2019-09-28 06:00:00 8 2 Sudoeste 4 Oeste 0 -- -- 74
2019-09-28 05:00:00 9.3 0 Calma 11 Nordeste 0 -- -- 68
2019-09-28 04:00:00 9.1 5 Nordeste 10 Sudeste 0 -- -- 65
2019-09-28 03:00:00 10.8 5 Sudeste 13 Nordeste 0 -- -- 59
2019-09-28 02:00:00 10.9 8 Nordeste 13 Nordeste 0 -- -- 54
2019-09-28 01:00:00 13 4 Nordeste 6 Nordeste 0 -- -- 46
2019-09-28 00:00:00 15 7 Nordeste 14 Nordeste 0 -- -- 39
2019-09-27 23:00:00 14.8 13 Nordeste 17 Nordeste 0 -- -- 42
2019-09-27 22:00:00 15.9 13 Nordeste 19 Norte 0 -- -- 40
2019-09-27 21:00:00 18.9 18 Norte 30 Norte 0 -- -- 33
2019-09-27 20:00:00 20.1 15 Norte 27 Norte 0 -- -- 33
2019-09-27 19:00:00 23.1 20 Norte 35 Norte 0 -- -- 26
2019-09-27 18:00:00 23.9 20 Norte 34 Norte 0 -- -- 30
2019-09-27 17:00:00 24.9 17 Noroeste 30 Norte 0 -- -- 31
2019-09-27 16:00:00 25.2 11 Noroeste 29 Noroeste 0 -- -- 29
2019-09-27 15:00:00 23.4 14 Noroeste 28 Noroeste 0 -- -- 31
2019-09-27 14:00:00 23.1 13 Noroeste 23 Oeste 0 -- -- 30
2019-09-27 13:00:00 22.1 7 Noroeste 14 Norte 0 -- -- 32
2019-09-27 12:00:00 20.3 4 Noroeste 17 Norte 0 -- -- 38
2019-09-27 11:00:00 17.1 11 Norte 15 Norte 0 -- -- 49
2019-09-27 10:00:00 14.8 5 Nordeste 13 Nordeste 0 -- -- 62
2019-09-27 09:00:00 12.2 4 Nordeste 8 Este 0 -- -- 70
2019-09-27 08:00:00 8.9 0 Calma 8 Nordeste 0 -- -- 84
2019-09-27 07:00:00 10.4 6 Nordeste 9 Nordeste 0 -- -- 78
2019-09-27 06:00:00 10.8 8 Nordeste 11 Norte 0 -- -- 78
2019-09-27 05:00:00 11.2 4 Nordeste 11 Nordeste 0 -- -- 78
2019-09-27 04:00:00 11.4 7 Nordeste 12 Nordeste 0 -- -- 77
2019-09-27 03:00:00 12.5 2 Este 9 Norte 0 -- -- 71
2019-09-27 02:00:00 13.5 5 Nordeste 6 Nordeste 0 -- -- 67
2019-09-27 01:00:00 14 3 Este 9 Nordeste 0 -- -- 67
2019-09-27 00:00:00 15.4 2 Nordeste 5 Nordeste 0 -- -- 61
2019-09-26 23:00:00 16.8 4 Nordeste 9 Nordeste 0 -- -- 55
2019-09-26 22:00:00 18.6 4 Norte 12 Noroeste 0 -- -- 51
2019-09-26 21:00:00 19.6 9 Norte 20 Norte 0 -- -- 47
2019-09-26 20:00:00 22.2 13 Norte 24 Oeste 0 -- -- 41
2019-09-26 19:00:00 25.3 15 Noroeste 28 Noroeste 0 -- -- 36
2019-09-26 18:00:00 26.1 15 Noroeste 27 Noroeste 0 -- -- 34
2019-09-26 17:00:00 25.9 21 Oeste 29 Noroeste 0 -- -- 33
2019-09-26 16:00:00 25.4 17 Noroeste 29 Oeste 0 -- -- 35
2019-09-26 15:00:00 24.5 15 Oeste 31 Oeste 0 -- -- 35
2019-09-26 14:00:00 22.5 17 Oeste 28 Oeste 0 -- -- 43
2019-09-26 13:00:00 21 14 Oeste 22 Sudoeste 0 -- -- 48
2019-09-26 12:00:00 19.9 6 Oeste 17 Noroeste 0 -- -- 52
2019-09-26 11:00:00 19.1 3 Oeste 9 Sudoeste 0 -- -- 55
2019-09-26 10:00:00 16.3 3 Sur 5 Sur 0 -- -- 63
2019-09-26 09:00:00 11 2 Sur 8 Sur 0 -- -- 82
2019-09-26 08:00:00 8.8 3 Nordeste 5 Nordeste 0 -- -- 89
2019-09-26 07:00:00 8.4 5 Nordeste 8 Norte 0 -- -- 88
2019-09-26 06:00:00 8.9 0 Calma 8 Norte 0 -- -- 88
2019-09-26 05:00:00 10.5 8 Norte 9 Norte 0 -- -- 81
2019-09-26 04:00:00 9.7 3 Sudoeste 6 Norte 0 -- -- 86
2019-09-26 03:00:00 10.6 5 Norte 7 Nordeste 0 -- -- 82
2019-09-26 02:00:00 11.3 2 Este 6 Sur 0 -- -- 79
2019-09-26 01:00:00 12.6 5 Nordeste 12 Norte 0 -- -- 73
2019-09-26 00:00:00 13.7 6 Nordeste 16 Norte 0 -- -- 68
2019-09-25 23:00:00 13.8 3 Nordeste 12 Nordeste 0 -- -- 68
2019-09-25 22:00:00 14.2 3 Este 16 Noroeste 0 -- -- 67
2019-09-25 21:00:00 15.2 14 Noroeste 25 Norte 0 -- -- 63
2019-09-25 20:00:00 16.5 10 Noroeste 22 Norte 0 -- -- 58
2019-09-25 19:00:00 17.9 16 Noroeste 24 Noroeste 0 -- -- 52
2019-09-25 18:00:00 18.9 15 Norte 26 Norte 0 -- -- 48
2019-09-25 17:00:00 19.5 14 Noroeste 24 Noroeste 0 -- -- 47
2019-09-25 16:00:00 19.8 14 Noroeste 27 Noroeste 0 -- -- 47
2019-09-25 15:00:00 18.3 10 Norte 22 Norte 0 -- -- 47
2019-09-25 14:00:00 17.4 9 Noroeste 22 Noroeste 0 -- -- 51
2019-09-25 13:00:00 16.4 9 Norte 29 Norte 0 -- -- 55
2019-09-25 12:00:00 15.1 17 Noroeste 32 Noroeste 0 -- -- 58
2019-09-25 11:00:00 13.9 20 Noroeste 32 Noroeste 0 -- -- 60
2019-09-25 10:00:00 12.6 21 Noroeste 28 Noroeste 0 -- -- 69
2019-09-25 09:00:00 11.2 17 Noroeste 33 Noroeste 0 -- -- 75
2019-09-25 08:00:00 10.8 23 Norte 37 Noroeste 0 -- -- 78
2019-09-25 07:00:00 11.4 24 Noroeste 35 Noroeste 0 -- -- 77
2019-09-25 06:00:00 12.1 20 Noroeste 35 Noroeste 0 -- -- 80
2019-09-25 05:00:00 12.4 16 Noroeste 31 Noroeste 0 -- -- 80
2019-09-25 04:00:00 13.4 22 Norte 31 Noroeste 0 -- -- 77
2019-09-25 03:00:00 14.1 17 Noroeste 27 Norte 0 -- -- 85
2019-09-25 02:00:00 15.2 19 Norte 31 Norte 0 -- -- 86
2019-09-25 01:00:00 15.4 17 Norte 24 Noroeste 0 -- -- 86
2019-09-25 00:00:00 15.4 13 Norte 24 Noroeste 0 -- -- 85
2019-09-24 23:00:00 16.2 18 Noroeste 27 Noroeste 0 -- -- 82
2019-09-24 22:00:00 17.5 18 Noroeste 28 Noroeste 0 -- -- 78
2019-09-24 21:00:00 17.8 9 Norte 18 Noroeste 0 -- -- 74
2019-09-24 20:00:00 18.2 8 Norte 22 Norte 0 -- -- 72
2019-09-24 19:00:00 18.1 15 Norte 35 Norte 0 -- -- 74
2019-09-24 18:00:00 19.9 23 Norte 40 Noroeste 0 -- -- 63
2019-09-24 17:00:00 21.7 25 Noroeste 41 Noroeste 0 -- -- 58
2019-09-24 16:00:00 21.2 27 Noroeste 46 Noroeste 0 -- -- 57
2019-09-24 15:00:00 21.4 23 Noroeste 39 Noroeste 0 -- -- 58
2019-09-24 14:00:00 20.5 26 Noroeste 43 Norte 0 -- -- 54
2019-09-24 13:00:00 19.2 29 Noroeste 44 Noroeste 0 -- -- 50
2019-09-24 12:00:00 18.2 22 Noroeste 36 Oeste 0 -- -- 55
2019-09-24 11:00:00 16.4 17 Noroeste 31 Noroeste 0 -- -- 63
2019-09-24 10:00:00 14.8 10 Norte 18 Noroeste 0 -- -- 69
2019-09-24 09:00:00 12.5 6 Nordeste 12 Noroeste 0 -- -- 75
2019-09-24 08:00:00 11.6 10 Noroeste 21 Noroeste 0 -- -- 76
2019-09-24 07:00:00 10.4 6 Nordeste 17 Oeste 0 -- -- 83
2019-09-24 06:00:00 10.9 3 Oeste 8 Sudoeste 0 -- -- 80
2019-09-24 05:00:00 12.4 3 Sur 8 Noroeste 0 -- -- 73
2019-09-24 04:00:00 12.4 3 Oeste 7 Sudoeste 0 -- -- 74
2019-09-24 03:00:00 13.7 6 Oeste 12 Oeste 0 -- -- 70
2019-09-24 02:00:00 13.5 5 Noroeste 19 Oeste 0 -- -- 73
2019-09-24 01:00:00 13.8 10 Oeste 18 Oeste 0 -- -- 74
2019-09-24 00:00:00 14.2 5 Norte 16 Oeste 0 -- -- 72
2019-09-23 23:00:00 15.1 10 Oeste 19 Oeste 0 -- -- 67
2019-09-23 22:00:00 15.7 10 Oeste 16 Oeste 0 -- -- 64
2019-09-23 21:00:00 16.8 11 Oeste 15 Oeste 0 -- -- 56
2019-09-23 20:00:00 18.6 9 Oeste 21 Noroeste 0 -- -- 49
2019-09-23 19:00:00 20.1 14 Oeste 22 Noroeste 0 -- -- 48
2019-09-23 18:00:00 21.1 12 Oeste 22 Oeste 0 -- -- 44
2019-09-23 17:00:00 20.1 10 Noroeste 29 Noroeste 0 -- -- 47
2019-09-23 16:00:00 19.3 11 Noroeste 30 Oeste 0 -- -- 48
2019-09-23 15:00:00 18.5 16 Oeste 32 Noroeste 0 -- -- 46
2019-09-23 14:00:00 17.6 17 Noroeste 32 Oeste 0 -- -- 50
2019-09-23 13:00:00 17.5 15 Oeste 27 Oeste 0 -- -- 52
2019-09-23 12:00:00 16.3 8 Noroeste 16 Noroeste 0 -- -- 59
2019-09-23 11:00:00 14.7 10 Oeste 14 Noroeste 0 -- -- 65
2019-09-23 10:00:00 11.7 8 Norte 12 Norte 0 -- -- 77
2019-09-23 09:00:00 10 9 Nordeste 13 Nordeste 0 -- -- 84
2019-09-23 08:00:00 8.5 8 Nordeste 16 Norte 0 -- -- 88
2019-09-23 07:00:00 9 10 Nordeste 13 Nordeste 0 -- -- 87
2019-09-23 06:00:00 9.2 2 Nordeste 12 Noroeste 0 -- -- 84
2019-09-23 05:00:00 8.9 2 Norte 5 Norte 0 -- -- 87
2019-09-23 04:00:00 9.6 3 Este 6 Sudeste 0 -- -- 85
2019-09-23 03:00:00 9.9 3 Sudoeste 4 Noroeste 0 -- -- 85
2019-09-23 02:00:00 9.9 3 Norte 5 Sur 0 -- -- 85
2019-09-23 01:00:00 10 5 Norte 12 Nordeste 0 -- -- 82
2019-09-23 00:00:00 11.3 8 Nordeste 13 Nordeste 0 -- -- 76
2019-09-22 23:00:00 12.8 12 Norte 24 Norte 0 -- -- 69
2019-09-22 22:00:00 13.3 17 Norte 25 Norte 0 -- -- 66
2019-09-22 21:00:00 13.8 10 Norte 25 Noroeste 0 -- -- 62
2019-09-22 20:00:00 16.2 19 Norte 32 Noroeste 0 -- -- 53
2019-09-22 19:00:00 17.9 21 Noroeste 36 Noroeste 0 -- -- 46
2019-09-22 18:00:00 18.5 21 Noroeste 36 Noroeste 0 -- -- 46
2019-09-22 17:00:00 17.8 19 Noroeste 39 Noroeste 0 -- -- 49
2019-09-22 16:00:00 17.8 24 Norte 38 Noroeste 0 -- -- 53
2019-09-22 15:00:00 16.8 21 Norte 33 Norte 0 -- -- 64
2019-09-22 14:00:00 15.1 18 Norte 28 Norte 0.2 -- -- 73
2019-09-22 13:00:00 13.4 4 Sur 24 Norte 0.6 -- -- 85
2019-09-22 12:00:00 13.7 19 Norte 28 Noroeste 0 -- -- 75
2019-09-22 11:00:00 12.8 21 Noroeste 30 Noroeste 0 -- -- 80
2019-09-22 10:00:00 12.8 17 Noroeste 31 Noroeste 0 -- -- 84
2019-09-22 09:00:00 12.8 21 Noroeste 40 Noroeste 0 -- -- 89
2019-09-22 08:00:00 14.8 23 Oeste 40 Noroeste 0 -- -- 83
2019-09-22 07:00:00 15.3 27 Oeste 39 Sudoeste 0 -- -- 85
2019-09-22 06:00:00 15.3 20 Sudoeste 35 Oeste 0 -- -- 87
2019-09-22 05:00:00 15.5 14 Sudoeste 25 Sudoeste 0.2 -- -- 87
2019-09-22 04:00:00 15.7 23 Sudoeste 33 Sudoeste 0 -- -- 85
2019-09-22 03:00:00 15.8 16 Sudoeste 31 Sudoeste 0 -- -- 85
2019-09-22 02:00:00 16.1 18 Sudoeste 26 Sudoeste 0 -- -- 87
2019-09-22 01:00:00 15.8 12 Sudoeste 19 Sudoeste 0 -- -- 89
2019-09-22 00:00:00 16.2 16 Sudoeste 23 Sudoeste 0 -- -- 86
2019-09-21 23:00:00 16 17 Sudoeste 25 Sudoeste 0 -- -- 85
2019-09-21 22:00:00 16.3 21 Sudoeste 32 Sudoeste 0 -- -- 82
2019-09-21 21:00:00 17.2 21 Sudoeste 27 Sudoeste 0 -- -- 76
2019-09-21 20:00:00 18 15 Oeste 31 Oeste 0 -- -- 71
2019-09-21 19:00:00 18.1 23 Oeste 35 Oeste 0 -- -- 68
2019-09-21 18:00:00 18.8 20 Oeste 36 Oeste 0 -- -- 65
2019-09-21 17:00:00 19.4 27 Oeste 41 Oeste 0 -- -- 60
2019-09-21 16:00:00 20.5 27 Oeste 46 Oeste 0 -- -- 57
2019-09-21 15:00:00 19.4 28 Oeste 39 Oeste 0 -- -- 62
2019-09-21 14:00:00 19.3 25 Oeste 37 Sudoeste 0 -- -- 63
2019-09-21 13:00:00 19.4 24 Sudoeste 33 Sudoeste 0 -- -- 63
2019-09-21 12:00:00 18.3 16 Sudoeste 24 Sudoeste 0 -- -- 70
2019-09-21 11:00:00 16.6 13 Sudoeste 21 Sur 0 -- -- 78
2019-09-21 10:00:00 16.7 14 Sudoeste 24 Sudoeste 0 -- -- 77
2019-09-21 09:00:00 15.3 12 Sur 16 Sur 0 -- -- 85
2019-09-21 08:00:00 14.1 12 Sur 15 Sur 0 -- -- 92
2019-09-21 07:00:00 14.3 10 Sur 15 Sur 0 -- -- 95
2019-09-21 06:00:00 14 9 Sur 12 Sur 0 -- -- 93
2019-09-21 05:00:00 14.1 6 Sudeste 14 Sudeste 0 -- -- 92
2019-09-21 04:00:00 13.6 5 Sudeste 17 Este 0 -- -- 88
2019-09-21 03:00:00 13.7 8 Nordeste 9 Nordeste 3.2 -- -- 86
2019-09-21 02:00:00 15.5 3 Norte 21 Noroeste 0 -- -- 74
2019-09-21 01:00:00 16.1 6 Sur 27 Sur 0 -- -- 87
2019-09-21 00:00:00 16.2 21 Sudeste 38 Sudeste 0 -- -- 86
2019-09-20 23:00:00 15.7 30 Sudeste 37 Sudeste 0 -- -- 84
2019-09-20 22:00:00 15 24 Sudeste 42 Sudeste 1 -- -- 88
2019-09-20 21:00:00 14.8 33 Sudeste 46 Sudeste 3.2 -- -- 84
2019-09-20 20:00:00 17.8 21 Sudeste 37 Sudeste 0 -- -- 70
2019-09-20 19:00:00 20 30 Sudeste 45 Sudeste 0 -- -- 68
2019-09-20 18:00:00 21.2 13 Sudeste 37 Sur 0.6 -- -- 70
2019-09-20 17:00:00 21.9 24 Sur 35 Sur 0 -- -- 57
2019-09-20 16:00:00 23.3 20 Sur 31 Sudeste 0 -- -- 48
2019-09-20 15:00:00 23.4 18 Sur 30 Sur 0 -- -- 52
2019-09-20 14:00:00 22.1 21 Sur 32 Sudoeste 0 -- -- 55
2019-09-20 13:00:00 21.6 14 Sur 32 Sudoeste 0 -- -- 60
2019-09-20 12:00:00 21.5 15 Sur 30 Sur 0 -- -- 61
2019-09-20 11:00:00 19.3 15 Sudeste 21 Sudeste 0 -- -- 69
2019-09-20 10:00:00 17.9 9 Sur 14 Sudeste 0 -- -- 76
2019-09-20 09:00:00 15.9 6 Sudeste 9 Sudeste 0 -- -- 80
2019-09-20 08:00:00 13.7 5 Sudeste 11 Sudeste 0 -- -- 88
2019-09-20 07:00:00 13.9 10 Sudeste 12 Sudeste 0 -- -- 88
2019-09-20 06:00:00 14.3 5 Sudeste 9 Sudeste 0 -- -- 86
2019-09-20 05:00:00 14.6 0 Calma 8 Sudeste 0 -- -- 82
2019-09-20 04:00:00 15.5 12 Sudeste 19 Sudeste 0 -- -- 79
2019-09-20 03:00:00 15 5 Este 10 Este 0 -- -- 81
2019-09-20 02:00:00 15.9 5 Sur 16 Sur 0 -- -- 78
2019-09-20 01:00:00 16.4 7 Sur 21 Sudeste 0 -- -- 77
2019-09-20 00:00:00 17 12 Sur 18 Sudeste 0 -- -- 75
2019-09-19 23:00:00 17 8 Sudeste 19 Sur 0 -- -- 78
2019-09-19 22:00:00 18.9 12 Sur 19 Sudeste 0 -- -- 65
2019-09-19 21:00:00 18.7 15 Sudeste 20 Sudeste 0 -- -- 67
2019-09-19 20:00:00 20.6 9 Este 12 Este 0 -- -- 61
2019-09-19 19:00:00 22 5 Norte 7 Norte 0 -- -- 53
2019-09-19 18:00:00 23.2 6 Noroeste 13 Noroeste 0 -- -- 46
2019-09-19 17:00:00 22.9 5 Oeste 29 Noroeste 0 -- -- 45
2019-09-19 16:00:00 22.9 14 Sudoeste 24 Sudoeste 0 -- -- 49
2019-09-19 15:00:00 24.2 13 Sudoeste 22 Sudoeste 0 -- -- 45
2019-09-19 14:00:00 22.8 10 Sur 21 Sur 0 -- -- 55
2019-09-19 13:00:00 21.7 12 Sur 20 Sur 0 -- -- 59
2019-09-19 12:00:00 20.4 14 Sur 21 Sur 0 -- -- 66
2019-09-19 11:00:00 20.1 5 Sur 10 Sudoeste 0 -- -- 68
2019-09-19 10:00:00 17.6 4 Sudeste 10 Sudeste 0 -- -- 75
2019-09-19 09:00:00 14.4 0 Calma 9 Sudeste 0 -- -- 88
2019-09-19 08:00:00 13.7 8 Sudeste 11 Sudeste 0 -- -- 88
2019-09-19 07:00:00 13.6 10 Sudeste 13 Sudeste 0 -- -- 86
2019-09-19 06:00:00 13.7 4 Nordeste 11 Norte 0 -- -- 87
2019-09-19 05:00:00 13.5 8 Norte 11 Norte 0 -- -- 89
2019-09-19 04:00:00 13.8 6 Nordeste 11 Nordeste 0 -- -- 84
2019-09-19 03:00:00 13.7 9 Nordeste 13 Norte 0 -- -- 85
2019-09-19 02:00:00 13.5 9 Norte 12 Norte 0 -- -- 88
2019-09-19 01:00:00 15.3 6 Nordeste 10 Norte 0 -- -- 78
2019-09-19 00:00:00 17 8 Este 10 Sudeste 0 -- -- 72
2019-09-18 23:00:00 17.1 6 Sudeste 11 Nordeste 0 -- -- 72
2019-09-18 22:00:00 16.9 8 Norte 10 Norte 0 -- -- 76
2019-09-18 21:00:00 18.6 5 Sudeste 17 Este 0 -- -- 64
2019-09-18 20:00:00 19 15 Este 23 Nordeste 0 -- -- 64
2019-09-18 19:00:00 20.8 14 Nordeste 24 Nordeste 0 -- -- 60
2019-09-18 18:00:00 23.6 8 Sur 13 Sudoeste 0 -- -- 53
2019-09-18 17:00:00 21.8 8 Sur 19 Sudoeste 0 -- -- 56
2019-09-18 16:00:00 21.4 11 Sudoeste 23 Sudoeste 0 -- -- 55
2019-09-18 15:00:00 20.5 9 Sur 14 Sur 0 -- -- 64
2019-09-18 14:00:00 17 8 Sudoeste 22 Sur 0 -- -- 81
2019-09-18 13:00:00 17 17 Sur 22 Sur 0 -- -- 79
2019-09-18 12:00:00 18 4 Sudoeste 8 Sudoeste 0 -- -- 75
2019-09-18 11:00:00 17.4 0 Calma 6 Nordeste 0 -- -- 75
2019-09-18 10:00:00 16.7 2 Norte 8 Sur 0 -- -- 77
2019-09-18 09:00:00 14.1 3 Sudeste 8 Sudoeste 0 -- -- 93
2019-09-18 08:00:00 11.2 7 Sur 13 Sudeste 0 -- -- 95
2019-09-18 07:00:00 11.6 5 Sudeste 12 Sudeste 0 -- -- 92
2019-09-18 06:00:00 12.5 3 Nordeste 8 Norte 0 -- -- 94
2019-09-18 05:00:00 12.4 2 Norte 10 Nordeste 0 -- -- 94
2019-09-18 04:00:00 13.2 10 Nordeste 24 Norte 0 -- -- 93
2019-09-18 03:00:00 13.9 12 Norte 22 Noroeste 0 -- -- 91
2019-09-18 02:00:00 14.2 15 Norte 29 Nordeste 0.8 -- -- 91
2019-09-18 01:00:00 14.6 14 Nordeste 20 Norte 0.4 -- -- 89
2019-09-18 00:00:00 14.9 10 Sudoeste 30 Sur 0 -- -- 85
2019-09-17 23:00:00 15.4 31 Sur 67 Sudoeste 0 -- -- 81
2019-09-17 22:00:00 19.5 10 Sudeste 24 Nordeste 0 -- -- 67
2019-09-17 21:00:00 20.1 11 Nordeste 16 Este 0 -- -- 68